Almond, Wisconsin
Current Conditions -  °F | °C
As of 7:56 AM on Monday 24 Nov 2014 (Local Time) from KY50 Reporting Station
Haze Haze  
Wind Chill: 34°   Ceiling: 700
Heat Index: 39°   Visibility: 2.5mi
Dew Point: 39°   Wind: 7mph
Humidity: 100%   Direction: 300°WNW
Pressure: 29.08"   Gusts: NA
Location:  44.26°N, 89.41°W
Report Text: KY50 241356Z AUTO 30006KT 2 1/2SM BR OVC007 04/04 A2908 RMK AO2 TSNO T00380038 CIG 005V012 RAB15E46 P0000 SLP849
Loading
Personal Weather Stations






























Interactive Weather Map New forecast layout! Learn more

10-Day Weather Forecast

Advertisements
Track Severe Weather on mobile